createdAt,value
2023-04-24T00:01:59.435Z,12.80
2023-04-24T00:04:27.169Z,12.80
2023-04-24T00:06:58.253Z,12.80
2023-04-24T00:09:25.375Z,12.80
2023-04-24T00:11:53.083Z,12.80
2023-04-24T00:14:19.911Z,12.80
2023-04-24T00:16:46.878Z,12.80
2023-04-24T00:19:13.832Z,12.70
2023-04-24T00:21:42.564Z,12.80
2023-04-24T00:24:12.179Z,12.70
2023-04-24T00:26:39.101Z,12.70
2023-04-24T00:29:05.924Z,12.70
2023-04-24T00:31:35.814Z,12.80
2023-04-24T00:34:03.944Z,12.70
2023-04-24T00:36:31.829Z,12.70
2023-04-24T00:38:58.895Z,12.70
2023-04-24T00:41:28.885Z,12.70
2023-04-24T00:43:55.748Z,12.80
2023-04-24T00:46:23.065Z,12.70
2023-04-24T00:48:50.591Z,12.70
2023-04-24T00:51:17.421Z,12.70
2023-04-24T00:53:44.482Z,12.70
2023-04-24T00:56:11.746Z,12.60
2023-04-24T00:58:39.445Z,12.60
2023-04-24T01:01:08.214Z,12.60
2023-04-24T01:03:38.251Z,12.70
2023-04-24T01:06:06.531Z,12.60
2023-04-24T01:08:36.907Z,12.60
2023-04-24T01:11:05.541Z,12.60
2023-04-24T01:13:33.746Z,12.50
2023-04-24T01:16:02.276Z,12.50
2023-04-24T01:18:29.793Z,12.40
2023-04-24T01:21:00.778Z,12.40
2023-04-24T01:23:28.048Z,12.40
2023-04-24T01:25:55.245Z,12.40
2023-04-24T01:28:23.119Z,12.30
2023-04-24T01:30:50.203Z,12.30
2023-04-24T01:33:17.649Z,12.30
2023-04-24T01:35:44.849Z,12.30
2023-04-24T01:38:11.914Z,12.30
2023-04-24T01:40:39.240Z,12.30
2023-04-24T01:43:06.625Z,12.30
2023-04-24T01:45:33.748Z,12.30
2023-04-24T01:48:01.851Z,12.30
2023-04-24T01:50:28.857Z,12.20
2023-04-24T01:52:56.355Z,12.20
2023-04-24T01:55:23.189Z,12.20
2023-04-24T01:57:51.232Z,12.20
2023-04-24T02:00:18.107Z,12.10
2023-04-24T02:02:48.225Z,12.10
2023-04-24T02:05:16.020Z,12.10
2023-04-24T02:07:42.855Z,12.10
2023-04-24T02:10:11.053Z,12.10
2023-04-24T02:12:38.042Z,12.10
2023-04-24T02:15:05.590Z,12.10
2023-04-24T02:17:32.464Z,12.10
2023-04-24T02:19:59.318Z,12.10
2023-04-24T02:22:26.157Z,12.10
2023-04-24T02:24:52.992Z,12.00
2023-04-24T02:27:19.819Z,12.00
2023-04-24T02:29:46.655Z,12.00
2023-04-24T02:32:13.888Z,12.00
2023-04-24T02:34:40.831Z,12.00
2023-04-24T02:37:07.903Z,12.00
2023-04-24T02:39:34.715Z,11.90
2023-04-24T02:42:02.632Z,12.10
2023-04-24T02:44:29.462Z,12.10
2023-04-24T02:46:56.282Z,12.00
2023-04-24T02:49:23.093Z,11.90
2023-04-24T02:51:49.975Z,11.90
2023-04-24T02:54:16.803Z,12.00
2023-04-24T02:56:43.682Z,11.90
2023-04-24T02:59:11.408Z,12.00
2023-04-24T03:01:38.355Z,11.90
2023-04-24T03:04:05.408Z,11.90
2023-04-24T03:06:33.831Z,11.90
2023-04-24T03:09:00.813Z,11.80
2023-04-24T03:11:27.803Z,11.90
2023-04-24T03:13:54.674Z,11.80
2023-04-24T03:16:21.516Z,11.80
2023-04-24T03:18:48.368Z,11.70
2023-04-24T03:21:15.205Z,11.70
2023-04-24T03:23:42.030Z,11.80
2023-04-24T03:26:08.813Z,11.80
2023-04-24T03:28:35.814Z,11.70
2023-04-24T03:31:04.628Z,11.70
2023-04-24T03:33:31.497Z,11.70
2023-04-24T03:35:58.293Z,11.80
2023-04-24T03:38:25.088Z,11.70
2023-04-24T03:40:51.849Z,11.60
2023-04-24T03:43:18.716Z,11.70
2023-04-24T03:45:45.684Z,11.60
2023-04-24T03:48:12.610Z,11.60
2023-04-24T03:50:39.455Z,11.60
2023-04-24T03:53:06.331Z,11.60
2023-04-24T03:55:33.180Z,11.60
2023-04-24T03:58:00.013Z,11.60
2023-04-24T04:00:27.267Z,11.60
2023-04-24T04:02:54.550Z,11.60
2023-04-24T04:05:21.626Z,11.50
2023-04-24T04:07:48.659Z,11.60
2023-04-24T04:10:15.465Z,11.50
2023-04-24T04:12:42.294Z,11.60
2023-04-24T04:15:09.514Z,11.60
2023-04-24T04:17:36.516Z,11.60
2023-04-24T04:20:08.075Z,11.60
2023-04-24T04:22:34.936Z,11.60
2023-04-24T04:25:01.838Z,11.60
2023-04-24T04:27:30.031Z,11.60
2023-04-24T04:29:57.588Z,11.60
2023-04-24T04:32:24.401Z,11.60
2023-04-24T04:34:54.290Z,11.50
2023-04-24T04:37:21.808Z,11.60
2023-04-24T04:39:48.685Z,11.60
2023-04-24T04:42:16.474Z,11.60
2023-04-24T04:44:43.799Z,11.60
2023-04-24T04:47:11.783Z,11.60
2023-04-24T04:49:40.278Z,11.60
2023-04-24T04:52:07.228Z,11.60
2023-04-24T04:54:34.058Z,11.70
2023-04-24T04:57:02.566Z,11.60
2023-04-24T04:59:31.031Z,11.70
2023-04-24T05:01:57.978Z,11.70
2023-04-24T05:04:24.885Z,11.70
2023-04-24T05:06:52.201Z,11.70
2023-04-24T05:09:19.737Z,11.80
2023-04-24T05:11:46.534Z,11.80
2023-04-24T05:14:16.544Z,11.80
2023-04-24T05:16:43.396Z,11.80
2023-04-24T05:19:10.343Z,11.90
2023-04-24T05:21:37.276Z,11.90
2023-04-24T05:24:04.358Z,12.00
2023-04-24T05:26:31.579Z,12.00
2023-04-24T05:28:58.405Z,12.00
2023-04-24T05:31:26.429Z,12.00
2023-04-24T05:33:53.269Z,12.00
2023-04-24T05:36:20.646Z,12.00
2023-04-24T05:38:47.452Z,11.90
2023-04-24T05:41:14.254Z,12.00
2023-04-24T05:43:41.071Z,12.00
2023-04-24T05:46:07.908Z,12.00
2023-04-24T05:48:34.791Z,12.00
2023-04-24T05:51:01.575Z,12.00
2023-04-24T05:53:28.469Z,12.10
2023-04-24T05:55:55.482Z,12.10
2023-04-24T05:58:22.308Z,12.10
2023-04-24T06:00:49.125Z,12.10
2023-04-24T06:03:16.191Z,12.10
2023-04-24T06:05:43.221Z,12.10
2023-04-24T06:08:10.894Z,12.10
2023-04-24T06:10:37.743Z,12.10
2023-04-24T06:13:04.736Z,12.20
2023-04-24T06:15:32.043Z,12.30
2023-04-24T06:17:59.090Z,12.20
2023-04-24T06:20:26.552Z,12.30
2023-04-24T06:22:53.530Z,12.30
2023-04-24T06:25:20.511Z,12.40
2023-04-24T06:27:48.428Z,12.40
2023-04-24T06:30:15.297Z,12.50
2023-04-24T06:32:42.124Z,12.50
2023-04-24T06:35:10.710Z,12.60
2023-04-24T06:37:37.619Z,12.50
2023-04-24T06:40:06.538Z,12.60
2023-04-24T06:42:36.690Z,12.60
2023-04-24T06:45:04.242Z,12.70
2023-04-24T06:47:31.228Z,12.70
2023-04-24T06:49:58.337Z,12.70
2023-04-24T06:52:25.245Z,12.70
2023-04-24T06:54:52.089Z,12.80
2023-04-24T06:57:39.758Z,12.80
2023-04-24T07:00:10.731Z,12.90
2023-04-24T07:02:38.620Z,13.00
2023-04-24T07:05:06.488Z,13.10
2023-04-24T07:07:33.357Z,13.10
2023-04-24T07:10:00.305Z,13.20
2023-04-24T07:12:27.225Z,13.30
2023-04-24T07:14:54.035Z,13.40
2023-04-24T07:17:20.872Z,13.50
2023-04-24T07:19:47.689Z,13.60
2023-04-24T07:22:17.769Z,13.60
2023-04-24T07:24:45.771Z,13.70
2023-04-24T07:27:13.078Z,13.70
2023-04-24T07:29:41.452Z,13.80
2023-04-24T07:32:08.946Z,13.90
2023-04-24T07:34:36.286Z,14.00
2023-04-24T07:37:03.253Z,14.10
2023-04-24T07:39:30.396Z,14.30
2023-04-24T07:41:57.257Z,14.40
2023-04-24T07:44:24.110Z,14.50
2023-04-24T07:46:51.012Z,14.50
2023-04-24T07:49:19.872Z,14.50
2023-04-24T07:51:47.007Z,14.50
2023-04-24T07:54:13.956Z,14.50
2023-04-24T07:56:43.937Z,14.40
2023-04-24T07:59:11.877Z,14.40
2023-04-24T08:01:39.268Z,14.40
2023-04-24T08:04:06.828Z,14.40
2023-04-24T08:06:34.212Z,14.30
2023-04-24T08:09:01.402Z,14.40
2023-04-24T08:11:28.678Z,14.30
2023-04-24T08:13:55.876Z,14.20
2023-04-24T08:16:24.968Z,14.20
2023-04-24T08:18:52.827Z,14.20
2023-04-24T08:21:19.975Z,14.20
2023-04-24T08:23:47.191Z,14.30
2023-04-24T08:26:14.478Z,14.30
2023-04-24T08:28:41.462Z,14.30
2023-04-24T08:31:08.334Z,14.40
2023-04-24T08:33:36.037Z,14.50
2023-04-24T08:36:07.146Z,14.50
2023-04-24T08:38:34.976Z,14.50
2023-04-24T08:41:02.927Z,14.50
2023-04-24T08:43:29.781Z,14.40
2023-04-24T08:45:58.240Z,14.40
2023-04-24T08:48:31.234Z,14.30
2023-04-24T08:51:00.302Z,14.20
2023-04-24T08:53:27.932Z,14.00
2023-04-24T08:55:57.652Z,13.80
2023-04-24T08:58:27.609Z,13.60
2023-04-24T09:00:58.796Z,13.40
2023-04-24T09:03:28.630Z,13.30
2023-04-24T09:05:58.470Z,13.20
2023-04-24T09:08:27.246Z,13.10
2023-04-24T09:10:54.291Z,13.10
2023-04-24T09:13:21.838Z,13.00
2023-04-24T09:15:49.181Z,12.90
2023-04-24T09:18:16.122Z,12.80
2023-04-24T09:21:05.068Z,12.70
2023-04-24T09:23:33.368Z,12.70
2023-04-24T09:26:03.154Z,12.70
2023-04-24T09:28:36.754Z,12.70
2023-04-24T09:31:19.530Z,12.70
2023-04-24T09:34:08.085Z,12.80
2023-04-24T09:36:43.582Z,12.80
2023-04-24T09:39:21.191Z,12.90
2023-04-24T09:42:00.639Z,12.90
2023-04-24T09:44:29.236Z,13.00
2023-04-24T09:46:59.130Z,13.10
2023-04-24T09:49:35.962Z,13.20
2023-04-24T09:52:07.651Z,13.40
2023-04-24T09:54:34.620Z,13.60
2023-04-24T09:57:01.465Z,13.80
2023-04-24T09:59:30.096Z,14.00
2023-04-24T10:01:58.729Z,14.10
2023-04-24T10:04:28.627Z,14.20
2023-04-24T10:06:58.058Z,14.30
2023-04-24T10:09:27.566Z,14.40
2023-04-24T10:11:55.914Z,14.60
2023-04-24T10:14:26.256Z,14.70
2023-04-24T10:16:57.388Z,14.80
2023-04-24T10:19:27.498Z,14.80
2023-04-24T10:21:57.071Z,14.90
2023-04-24T10:24:23.927Z,15.10
2023-04-24T10:26:50.890Z,15.20
2023-04-24T10:29:20.669Z,15.30
2023-04-24T10:31:48.018Z,15.50
2023-04-24T10:34:18.832Z,15.60
2023-04-24T10:36:55.838Z,15.70
2023-04-24T10:39:27.737Z,15.80
2023-04-24T10:41:58.855Z,15.80
2023-04-24T10:44:26.032Z,15.90
2023-04-24T10:46:56.921Z,16.00
2023-04-24T10:49:31.929Z,16.10
2023-04-24T10:52:06.421Z,16.00
2023-04-24T10:54:47.435Z,16.00
2023-04-24T10:57:23.397Z,15.90
2023-04-24T11:00:10.509Z,15.80
2023-04-24T11:02:41.220Z,15.70
2023-04-24T11:05:08.518Z,15.50
2023-04-24T11:08:15.597Z,15.30
2023-04-24T11:10:46.417Z,14.80
2023-04-24T11:13:18.095Z,14.30
2023-04-24T11:15:45.040Z,13.90
2023-04-24T11:18:17.852Z,13.60
2023-04-24T11:20:46.038Z,13.40
2023-04-24T11:23:14.771Z,13.30
2023-04-24T11:25:42.897Z,13.30
2023-04-24T11:28:17.285Z,13.30
2023-04-24T11:30:44.120Z,13.40
2023-04-24T11:33:11.042Z,13.40
2023-04-24T11:35:41.764Z,13.60
2023-04-24T11:40:39.440Z,14.00
2023-04-24T11:43:08.416Z,14.10
2023-04-24T11:45:35.878Z,14.30
2023-04-24T11:48:04.945Z,14.40
2023-04-24T11:50:32.002Z,14.50
2023-04-24T11:52:59.998Z,14.50
2023-04-24T11:55:29.752Z,14.60
2023-04-24T11:57:59.569Z,14.60
2023-04-24T12:00:32.581Z,14.70
2023-04-24T12:03:12.623Z,14.80
2023-04-24T12:05:40.989Z,14.90
2023-04-24T12:08:08.159Z,15.00
2023-04-24T12:10:37.206Z,15.00
2023-04-24T12:13:04.251Z,15.00
2023-04-24T12:15:31.117Z,14.90
2023-04-24T12:17:58.640Z,14.80
2023-04-24T12:20:32.032Z,14.70
2023-04-24T12:23:03.054Z,14.60
2023-04-24T12:25:32.893Z,14.70
2023-04-24T12:28:05.861Z,14.70
2023-04-24T12:30:36.396Z,14.70
2023-04-24T12:33:04.574Z,14.70
2023-04-24T12:35:34.614Z,14.80
2023-04-24T12:38:09.682Z,14.80
2023-04-24T12:40:36.989Z,14.90
2023-04-24T12:43:16.698Z,14.90
2023-04-24T12:45:43.694Z,15.10
2023-04-24T12:48:10.529Z,15.20
2023-04-24T12:50:38.749Z,15.40
2023-04-24T12:53:05.649Z,15.50
2023-04-24T12:55:32.472Z,15.70
2023-04-24T12:57:59.424Z,15.70
2023-04-24T13:00:26.321Z,15.70
2023-04-24T13:02:53.351Z,15.70
2023-04-24T13:05:20.254Z,15.70
2023-04-24T13:07:47.063Z,15.80
2023-04-24T13:10:14.332Z,15.70
2023-04-24T13:12:41.810Z,15.80
2023-04-24T13:15:09.181Z,15.80
2023-04-24T13:17:36.057Z,15.90
2023-04-24T13:20:03.723Z,15.90
2023-04-24T13:22:30.706Z,16.00
2023-04-24T13:24:58.215Z,16.10
2023-04-24T13:27:25.005Z,16.20
2023-04-24T13:29:52.166Z,16.30
2023-04-24T13:32:19.178Z,16.30
2023-04-24T13:34:47.060Z,16.20
2023-04-24T13:37:14.034Z,16.20
2023-04-24T13:39:42.477Z,16.00
2023-04-24T13:42:10.011Z,15.90
2023-04-24T13:44:36.852Z,15.80
2023-04-24T13:47:03.664Z,15.80
2023-04-24T13:49:30.511Z,15.90
2023-04-24T13:51:58.073Z,16.10
2023-04-24T13:54:26.905Z,16.20
2023-04-24T13:56:54.510Z,16.30
2023-04-24T13:59:22.497Z,16.40
2023-04-24T14:01:49.583Z,16.50
2023-04-24T14:04:16.937Z,16.60
2023-04-24T14:06:45.376Z,16.60
2023-04-24T14:09:12.288Z,16.60
2023-04-24T14:11:39.554Z,16.60
2023-04-24T14:14:06.867Z,16.60
2023-04-24T14:16:33.795Z,16.50
2023-04-24T14:19:00.688Z,16.50
2023-04-24T14:21:27.523Z,16.50
2023-04-24T14:23:54.310Z,16.70
2023-04-24T14:26:21.401Z,16.90
2023-04-24T14:28:48.272Z,17.10
2023-04-24T14:31:15.192Z,17.20
2023-04-24T14:33:42.064Z,17.20
2023-04-24T14:36:09.020Z,17.30
2023-04-24T14:38:35.993Z,17.40
2023-04-24T14:41:10.582Z,17.70
2023-04-24T14:43:40.017Z,18.10
2023-04-24T14:46:06.857Z,18.50
2023-04-24T14:48:33.715Z,19.00
2023-04-24T14:51:00.576Z,19.40
2023-04-24T14:53:27.495Z,19.60
2023-04-24T14:55:55.059Z,19.50
2023-04-24T14:58:22.550Z,19.40
2023-04-24T15:00:52.860Z,19.20
2023-04-24T15:03:20.440Z,19.00
2023-04-24T15:05:47.662Z,18.70
2023-04-24T15:08:15.032Z,18.50
2023-04-24T15:10:42.083Z,18.40
2023-04-24T15:13:08.990Z,18.30
2023-04-24T15:15:36.057Z,18.30
2023-04-24T15:18:02.968Z,18.60
2023-04-24T15:20:29.818Z,18.70
2023-04-24T15:22:56.691Z,18.70
2023-04-24T15:25:23.519Z,18.60
2023-04-24T15:27:50.489Z,18.50
2023-04-24T15:30:17.399Z,18.40
2023-04-24T15:32:44.463Z,18.10
2023-04-24T15:35:11.482Z,18.00
2023-04-24T15:37:39.595Z,17.80
2023-04-24T15:40:08.157Z,17.70
2023-04-24T15:42:36.328Z,17.60
2023-04-24T15:45:04.585Z,17.70
2023-04-24T15:47:33.403Z,17.70
2023-04-24T15:50:00.622Z,17.70
2023-04-24T15:52:27.677Z,17.80
2023-04-24T15:54:54.656Z,17.80
2023-04-24T15:57:22.014Z,17.90
2023-04-24T15:59:49.233Z,17.90
2023-04-24T16:02:19.136Z,17.90
2023-04-24T16:04:48.367Z,17.80
2023-04-24T16:07:18.225Z,17.80
2023-04-24T16:09:46.073Z,17.70
2023-04-24T16:12:13.378Z,17.70
2023-04-24T16:14:40.283Z,17.50
2023-04-24T16:17:07.166Z,17.40
2023-04-24T16:19:34.621Z,17.30
2023-04-24T16:22:03.147Z,17.20
2023-04-24T16:24:30.463Z,17.10
2023-04-24T16:26:57.688Z,17.00
2023-04-24T16:29:24.681Z,16.90
2023-04-24T16:31:51.974Z,16.80
2023-04-24T16:34:19.194Z,16.80
2023-04-24T16:36:46.561Z,16.70
2023-04-24T16:39:13.872Z,16.80
2023-04-24T16:41:40.905Z,17.00
2023-04-24T16:44:07.896Z,17.10
2023-04-24T16:46:35.250Z,17.10
2023-04-24T16:49:02.295Z,17.00
2023-04-24T16:51:29.153Z,16.90
2023-04-24T16:53:56.173Z,16.80
2023-04-24T16:56:23.111Z,16.70
2023-04-24T16:58:51.022Z,16.50
2023-04-24T17:01:18.288Z,16.40
2023-04-24T17:03:45.696Z,16.20
2023-04-24T17:06:12.946Z,16.10
2023-04-24T17:08:40.085Z,16.00
2023-04-24T17:11:07.004Z,16.00
2023-04-24T17:13:34.004Z,16.00
2023-04-24T17:16:01.050Z,16.00
2023-04-24T17:18:27.966Z,16.10
2023-04-24T17:20:54.904Z,16.30
2023-04-24T17:23:21.848Z,16.40
2023-04-24T17:25:49.252Z,16.40
2023-04-24T17:28:36.985Z,16.40
2023-04-24T17:31:04.125Z,16.20
2023-04-24T17:33:31.510Z,16.10
2023-04-24T17:36:01.696Z,15.90
2023-04-24T17:38:30.004Z,15.80
2023-04-24T17:40:58.335Z,15.60
2023-04-24T17:43:25.583Z,15.50
2023-04-24T17:45:56.998Z,15.40
2023-04-24T17:48:23.954Z,15.30
2023-04-24T17:50:51.676Z,15.20
2023-04-24T17:53:19.353Z,15.10
2023-04-24T17:55:46.730Z,15.00
2023-04-24T17:58:14.325Z,14.90
2023-04-24T18:00:41.688Z,14.80
2023-04-24T18:03:09.618Z,14.70
2023-04-24T18:05:38.682Z,14.60
2023-04-24T18:08:06.230Z,14.50
2023-04-24T18:10:36.599Z,14.40
2023-04-24T18:13:04.945Z,14.30
2023-04-24T18:15:32.260Z,14.30
2023-04-24T18:17:59.652Z,14.20
2023-04-24T18:20:29.693Z,14.10
2023-04-24T18:22:56.613Z,14.00
2023-04-24T18:25:26.999Z,14.00
2023-04-24T18:27:55.756Z,13.90
2023-04-24T18:30:24.493Z,13.90
2023-04-24T18:32:53.683Z,13.80
2023-04-24T18:35:21.497Z,13.80
2023-04-24T18:37:50.482Z,13.70
2023-04-24T18:40:17.940Z,13.70
2023-04-24T18:42:45.089Z,13.60
2023-04-24T18:45:14.872Z,13.60
2023-04-24T18:47:43.027Z,13.50
2023-04-24T18:50:10.870Z,13.50
2023-04-24T18:52:37.812Z,13.50
2023-04-24T18:55:06.634Z,13.40
2023-04-24T18:57:33.928Z,13.30
2023-04-24T19:00:00.965Z,13.30
2023-04-24T19:02:28.134Z,13.20
2023-04-24T19:04:55.332Z,13.20
2023-04-24T19:07:22.178Z,13.20
2023-04-24T19:09:49.132Z,13.20
2023-04-24T19:12:16.022Z,13.10
2023-04-24T19:14:43.078Z,13.10
2023-04-24T19:17:10.954Z,13.10
2023-04-24T19:19:38.017Z,13.10
2023-04-24T19:22:05.193Z,13.10
2023-04-24T19:24:33.725Z,13.10
2023-04-24T19:27:01.671Z,13.10
2023-04-24T19:29:28.754Z,13.10
2023-04-24T19:31:57.883Z,13.10
2023-04-24T19:34:26.181Z,13.10
2023-04-24T19:36:53.364Z,13.10
2023-04-24T19:39:23.056Z,13.10
2023-04-24T19:41:49.865Z,13.10
2023-04-24T19:44:17.331Z,13.00
2023-04-24T19:46:44.330Z,13.10
2023-04-24T19:49:11.706Z,13.10
2023-04-24T19:51:38.623Z,13.00
2023-04-24T19:54:06.331Z,13.00
2023-04-24T19:56:33.969Z,13.10
2023-04-24T19:59:01.093Z,13.00
2023-04-24T20:01:28.232Z,13.00
2023-04-24T20:03:55.414Z,13.00
2023-04-24T20:06:22.426Z,13.00
2023-04-24T20:08:50.233Z,13.00
2023-04-24T20:11:17.418Z,13.00
2023-04-24T20:13:45.928Z,12.90
2023-04-24T20:16:13.100Z,12.90
2023-04-24T20:18:40.066Z,12.90
2023-04-24T20:21:07.123Z,12.90
2023-04-24T20:23:33.994Z,12.80
2023-04-24T20:26:01.324Z,12.80
2023-04-24T20:28:30.390Z,12.80
2023-04-24T20:30:59.028Z,12.70
2023-04-24T20:33:28.080Z,12.70
2023-04-24T20:35:55.668Z,12.70
2023-04-24T20:38:24.392Z,12.60
2023-04-24T20:40:57.157Z,12.60
2023-04-24T20:43:28.894Z,12.60
2023-04-24T20:45:57.954Z,12.50
2023-04-24T20:48:26.163Z,12.50
2023-04-24T20:50:55.960Z,12.40
2023-04-24T20:53:23.111Z,12.40
2023-04-24T20:55:50.163Z,12.40
2023-04-24T20:58:21.994Z,12.20
2023-04-24T21:00:49.298Z,12.20
2023-04-24T21:03:16.638Z,12.10
2023-04-24T21:05:43.543Z,12.10
2023-04-24T21:08:10.475Z,12.10
2023-04-24T21:10:37.335Z,12.00
2023-04-24T21:13:04.172Z,12.00
2023-04-24T21:15:31.101Z,11.90
2023-04-24T21:17:58.043Z,11.90
2023-04-24T21:20:25.251Z,11.80
2023-04-24T21:22:52.061Z,11.80
2023-04-24T21:25:18.975Z,11.80
2023-04-24T21:27:45.924Z,11.70
2023-04-24T21:30:13.277Z,11.70
2023-04-24T21:32:40.654Z,11.70
2023-04-24T21:35:08.132Z,11.60
2023-04-24T21:37:36.277Z,11.60
2023-04-24T21:40:04.840Z,11.60
2023-04-24T21:42:32.047Z,11.60
2023-04-24T21:44:59.171Z,11.50
2023-04-24T21:47:26.027Z,11.50
2023-04-24T21:49:52.961Z,11.50
2023-04-24T21:52:20.147Z,11.40
2023-04-24T21:54:47.008Z,11.40
2023-04-24T21:57:14.022Z,11.30
2023-04-24T21:59:41.008Z,11.30
2023-04-24T22:02:08.110Z,11.30
2023-04-24T22:04:35.230Z,11.20
2023-04-24T22:07:02.152Z,11.20
2023-04-24T22:09:29.015Z,11.20
2023-04-24T22:11:56.181Z,11.20
2023-04-24T22:14:23.142Z,11.10
2023-04-24T22:16:50.188Z,11.10
2023-04-24T22:19:17.095Z,11.10
2023-04-24T22:21:43.926Z,11.10
2023-04-24T22:24:10.860Z,11.00
2023-04-24T22:26:41.091Z,11.00
2023-04-24T22:29:07.972Z,11.00
2023-04-24T22:31:35.119Z,11.00
2023-04-24T22:34:22.264Z,10.90
2023-04-24T22:36:49.575Z,10.90
2023-04-24T22:39:17.587Z,10.90
2023-04-24T22:41:44.482Z,10.80
2023-04-24T22:44:11.833Z,10.80
2023-04-24T22:46:38.704Z,10.90
2023-04-24T22:49:05.687Z,10.80
2023-04-24T22:51:35.469Z,10.70
2023-04-24T22:54:04.540Z,10.70
2023-04-24T22:56:32.136Z,10.70
2023-04-24T22:58:59.359Z,10.70
2023-04-24T23:01:29.321Z,10.70
2023-04-24T23:03:56.426Z,10.80
2023-04-24T23:06:23.448Z,10.70
2023-04-24T23:08:50.364Z,10.70
2023-04-24T23:11:17.528Z,10.70
2023-04-24T23:13:44.521Z,10.70
2023-04-24T23:16:11.394Z,10.70
2023-04-24T23:18:38.283Z,10.70
2023-04-24T23:21:05.552Z,10.70
2023-04-24T23:23:32.728Z,10.70
2023-04-24T23:25:59.792Z,10.70
2023-04-24T23:28:26.980Z,10.70
2023-04-24T23:30:53.911Z,10.80
2023-04-24T23:33:20.779Z,10.70
2023-04-24T23:35:47.831Z,10.70
2023-04-24T23:38:14.732Z,10.70
2023-04-24T23:40:41.726Z,10.70
2023-04-24T23:43:08.889Z,10.70
2023-04-24T23:45:36.071Z,10.80
2023-04-24T23:48:04.506Z,10.70
2023-04-24T23:50:31.588Z,10.70
2023-04-24T23:52:58.696Z,10.70
2023-04-24T23:55:26.030Z,10.70
2023-04-24T23:57:52.818Z,10.80
